Shoei Maru No.55 — JL6485 — position and weather

sailwx.info

Track history (hours):
 
Tides and Currents Weather Stations Pressure Air Temp Water Temp Dewpoint Dewpoint Depression Visibility Wind Speed Wind Dir Waves Ship Positions

Shoei Maru No.55

Last reported at 2018-Feb-19 13:58 UTC. Time now 2018-Feb-19 14:21 UTC.
Position N 35°31' E 139°50'.

Length 72 m; draft 4.5 m.

Type: Cargo ship. MMSI: 431500583.

Date/timePositionNaut miles runAvg speedWind from/ knotsBaromVisibWave heightAir tempDewpointWater temp
2018-Feb-19 13:58N 35°31' E 139°50'0 0.0
2018-Feb-19 13:28N 35°31' E 139°50'0 0.0
2018-Feb-19 12:58N 35°31' E 139°50'0 0.0
2018-Feb-19 12:22N 35°31' E 139°50'0 0.0
2018-Feb-19 11:58N 35°31' E 139°50'0 0.0
2018-Feb-19 11:28N 35°31' E 139°50'0 0.0
2018-Feb-19 10:52N 35°31' E 139°50'0 0.0
2018-Feb-19 10:25N 35°31' E 139°50'0 0.0
2018-Feb-19 09:58N 35°31' E 139°50'0 0.1
2018-Feb-19 09:28N 35°31' E 139°50'0 0.0
2018-Feb-19 08:55N 35°31' E 139°50'0 0.0
2018-Feb-19 08:19N 35°31' E 139°50'0 0.0
2018-Feb-19 07:58N 35°31' E 139°50'0 0.0
2018-Feb-19 07:28N 35°31' E 139°50'0 0.0
2018-Feb-19 06:55N 35°31' E 139°50'0 0.0
2018-Feb-19 06:28N 35°31' E 139°50'0 0.0
2018-Feb-19 05:58N 35°31' E 139°50'0 0.0
2018-Feb-19 05:25N 35°31' E 139°50'0 0.0
2018-Feb-19 04:55N 35°31' E 139°50'0 0.1
2018-Feb-19 04:27N 35°31' E 139°50'4 8.7
2018-Feb-19 04:00N 35°27' E 139°48'611.0
2018-Feb-19 03:30N 35°22' E 139°45'5 9.9
2018-Feb-19 03:00N 35°17' E 139°45'5 9.8
2018-Feb-19 02:30N 35°12' E 139°47'510.5
2018-Feb-19 02:00N 35°08' E 139°44'610.8
2018-Feb-19 01:27N 35°03' E 139°39'3711.0
2018-Feb-18 22:06N 34°39' E 139°05'1 9.5
2018-Feb-18 21:59N 34°39' E 139°04'6 9.6
2018-Feb-18 21:22N 34°36' E 138°58'1610.6
2018-Feb-18 19:53N 34°33' E 138°39'611.4
2018-Feb-18 19:20N 34°32' E 138°32'611.0
2018-Feb-18 18:48N 34°31' E 138°25'711.5
2018-Feb-18 18:14N 34°30' E 138°17'180 5.1
2018-Feb-17 06:47N 33°50' E 134°45'712.4
2018-Feb-17 06:14N 33°56' E 134°49'312.4
2018-Feb-17 05:58N 33°59' E 134°51'612.4
2018-Feb-17 05:30N 34°04' E 134°54'612.2
2018-Feb-17 05:00N 34°09' E 134°58'612.4
2018-Feb-17 04:30N 34°15' E 135°02'613.1
2018-Feb-17 04:00N 34°20' E 135°06'611.8
2018-Feb-17 03:30N 34°25' E 135°10'611.2
2018-Feb-17 03:01N 34°30' E 135°13'510.8
2018-Feb-17 02:31N 34°35' E 135°17'510.0
2018-Feb-17 02:00N 34°39' E 135°20'4 8.3
2018-Feb-17 01:30N 34°42' E 135°24'0 0.0
2018-Feb-17 01:00N 34°42' E 135°24'0 0.0
2018-Feb-17 00:30N 34°42' E 135°24'0 0.0
2018-Feb-17 00:00N 34°42' E 135°24'0 0.0
2018-Feb-16 23:30N 34°42' E 135°24'0 0.0
2018-Feb-16 23:00N 34°42' E 135°24'0 0.0
2018-Feb-16 22:30N 34°42' E 135°24'0 0.0
2018-Feb-16 22:00N 34°42' E 135°24'0 0.0
2018-Feb-16 21:30N 34°42' E 135°24'0 0.0
2018-Feb-16 21:00N 34°42' E 135°24'0 0.0
2018-Feb-16 20:30N 34°42' E 135°24'0 0.0
2018-Feb-16 20:00N 34°42' E 135°24'0 0.0
2018-Feb-16 19:30N 34°42' E 135°24'3 5.5
2018-Feb-16 19:01N 34°40' E 135°21'0 0.1
2018-Feb-16 18:29N 34°40' E 135°21'0 0.0
2018-Feb-16 17:59N 34°40' E 135°21'0 0.0
2018-Feb-16 17:29N 34°40' E 135°21'0 0.0
2018-Feb-16 16:59N 34°40' E 135°21'0 0.0
2018-Feb-16 16:23N 34°40' E 135°21'0 0.0
2018-Feb-16 15:59N 34°40' E 135°21'0 0.1
2018-Feb-16 15:29N 34°40' E 135°21'0 0.1
2018-Feb-16 14:59N 34°40' E 135°21'0 0.1
2018-Feb-16 14:29N 34°40' E 135°21'0 0.0
2018-Feb-16 13:59N 34°40' E 135°21'0 0.1
2018-Feb-16 13:29N 34°40' E 135°21'0 0.1
2018-Feb-16 12:59N 34°40' E 135°21'0 0.0
2018-Feb-16 12:29N 34°40' E 135°21'2 4.0
2018-Feb-16 12:01N 34°38' E 135°20'510.9
2018-Feb-16 11:31N 34°34' E 135°16'611.2
2018-Feb-16 11:00N 34°29' E 135°12'611.3
2018-Feb-16 10:30N 34°24' E 135°08'611.5
2018-Feb-16 10:00N 34°20' E 135°05'611.8
2018-Feb-16 09:30N 34°14' E 135°03'611.3
2018-Feb-16 09:00N 34°08' E 135°02'611.2
2018-Feb-16 08:30N 34°02' E 135°02'611.1
2018-Feb-16 08:00N 33°57' E 135°02'510.5
2018-Feb-16 07:30N 33°52' E 135°03'141 9.4
2018-Feb-15 16:30N 34°27' E 137°48'710.5
2018-Feb-15 15:50N 34°28' E 137°57'3 9.7
2018-Feb-15 15:30N 34°29' E 138°01'5 9.4
2018-Feb-15 14:56N 34°29' E 138°07'5 8.8
2018-Feb-15 14:23N 34°31' E 138°12'4 8.8
2018-Feb-15 13:59N 34°32' E 138°17'4 9.1
2018-Feb-15 13:30N 34°32' E 138°22'5 9.6
2018-Feb-15 13:00N 34°33' E 138°28'6 9.7
2018-Feb-15 12:26N 34°34' E 138°34'4 9.7
2018-Feb-15 11:59N 34°34' E 138°40'5 9.7
2018-Feb-15 11:30N 34°35' E 138°45'6 9.4
2018-Feb-15 10:55N 34°35' E 138°52'3 7.9
2018-Feb-15 10:30N 34°36' E 138°56'4 8.2
2018-Feb-15 10:00N 34°38' E 138°59'510.0
2018-Feb-15 09:28N 34°43' E 139°04'510.2
2018-Feb-15 08:57N 34°47' E 139°08'610.0
2018-Feb-15 08:24N 34°51' E 139°12'410.0
2018-Feb-15 07:59N 34°54' E 139°15'5 9.9
2018-Feb-15 07:30N 34°56' E 139°20'510.0
2018-Feb-15 06:59N 34°59' E 139°26'510.3
2018-Feb-15 06:30N 35°02' E 139°31'511.0
2018-Feb-15 06:01N 35°05' E 139°37'611.7
2018-Feb-15 05:30N 35°08' E 139°43'611.1
2018-Feb-15 05:00N 35°12' E 139°46'510.2
2018-Feb-15 04:30N 35°17' E 139°45'510.5
2018-Feb-15 04:00N 35°22' E 139°42'510.8
2018-Feb-15 03:30N 35°28' E 139°42'2 4.2
2018-Feb-15 03:00N 35°30' E 139°43'0 0.0
2018-Feb-15 02:30N 35°30' E 139°43'0 0.0
2018-Feb-15 02:00N 35°30' E 139°43'0 0.0
2018-Feb-15 01:30N 35°30' E 139°43'0 0.0
2018-Feb-15 01:00N 35°30' E 139°43'0 0.0
2018-Feb-15 00:30N 35°30' E 139°43'0 0.0
2018-Feb-15 00:00N 35°30' E 139°43'0 0.0
2018-Feb-14 23:30N 35°30' E 139°43'0 0.0
2018-Feb-14 23:00N 35°30' E 139°43'0 0.8
2018-Feb-14 22:31N 35°30' E 139°44'510.8
2018-Feb-14 22:00N 35°31' E 139°50'0 0.3
2018-Feb-14 21:28N 35°31' E 139°50'0 0.0
2018-Feb-14 20:58N 35°31' E 139°50'0 0.0
2018-Feb-14 20:28N 35°31' E 139°50'0 0.0
2018-Feb-14 19:58N 35°31' E 139°50'0 0.0
2018-Feb-14 19:28N 35°31' E 139°50'0 0.0
2018-Feb-14 18:58N 35°31' E 139°50'0 0.0
2018-Feb-14 18:28N 35°31' E 139°50'0 0.0
2018-Feb-14 17:55N 35°31' E 139°50'0 0.0
2018-Feb-14 17:28N 35°31' E 139°50'0 0.0
2018-Feb-14 16:58N 35°31' E 139°50'0 0.0
2018-Feb-14 16:28N 35°31' E 139°50'0 0.0
2018-Feb-14 15:58N 35°31' E 139°50'0 0.0
2018-Feb-14 15:28N 35°31' E 139°50'0 0.0
2018-Feb-14 14:58N 35°31' E 139°50'0 0.0
2018-Feb-14 14:28N 35°31' E 139°50'0 0.0
2018-Feb-14 13:58N 35°31' E 139°50'0 0.0
2018-Feb-14 13:28N 35°31' E 139°50'0 0.0
2018-Feb-14 12:58N 35°31' E 139°50'0 0.0
2018-Feb-14 12:28N 35°31' E 139°50'0 0.0
2018-Feb-14 11:55N 35°31' E 139°50'0 0.0
2018-Feb-14 11:28N 35°31' E 139°50'0 0.0
2018-Feb-14 10:58N 35°31' E 139°50'0 0.0
2018-Feb-14 10:28N 35°31' E 139°50'0 0.0
2018-Feb-14 09:55N 35°31' E 139°50'0 0.0
2018-Feb-14 09:25N 35°31' E 139°50'0 0.0
2018-Feb-14 08:58N 35°31' E 139°50'0 0.0
2018-Feb-14 08:25N 35°31' E 139°50'0 0.0
2018-Feb-14 07:58N 35°31' E 139°50'0 0.0
2018-Feb-14 07:25N 35°31' E 139°50'0 0.1
2018-Feb-14 06:58N 35°31' E 139°50'0 0.1
2018-Feb-14 06:25N 35°31' E 139°50'0 0.1
2018-Feb-14 05:58N 35°31' E 139°50'0 0.0
2018-Feb-14 05:28N 35°31' E 139°50'0 0.0
2018-Feb-14 04:52N 35°31' E 139°50'0 0.0
2018-Feb-14 04:28N 35°31' E 139°50'0 0.1
2018-Feb-14 04:00N 35°31' E 139°50'5 9.4
2018-Feb-14 03:30N 35°35' E 139°47'1 1.2
2018-Feb-14 03:00N 35°35' E 139°46'0 0.0
2018-Feb-14 02:09N 35°35' E 139°46'0 0.0
2018-Feb-14 02:00N 35°35' E 139°46'0 0.0
2018-Feb-14 01:27N 35°35' E 139°46'0 0.0
2018-Feb-14 00:48N 35°35' E 139°46'0 0.0
2018-Feb-14 00:18N 35°35' E 139°46'0 0.0
2018-Feb-13 21:18N 35°35' E 139°46'1 3.1
2018-Feb-13 21:00N 35°35' E 139°47'5 9.2
2018-Feb-13 20:30N 35°31' E 139°50'0 0.0
2018-Feb-13 19:58N 35°31' E 139°50'0 0.0
2018-Feb-13 19:28N 35°31' E 139°50'0 0.0
2018-Feb-13 18:58N 35°31' E 139°50'0 0.0
2018-Feb-13 18:28N 35°31' E 139°50'0 0.1
2018-Feb-13 17:58N 35°31' E 139°50'0 0.0
2018-Feb-13 17:28N 35°31' E 139°50'0 0.0
2018-Feb-13 16:58N 35°31' E 139°50'0 0.0
2018-Feb-13 16:28N 35°31' E 139°50'0 0.0
2018-Feb-13 15:58N 35°31' E 139°50'0 0.0
2018-Feb-13 15:25N 35°31' E 139°50'0 0.0
2018-Feb-13 14:58N 35°31' E 139°50'0 0.0
2018-Feb-13 14:28N 35°31' E 139°50'0 0.0
2018-Feb-13 13:58N 35°31' E 139°50'0 0.0
2018-Feb-13 13:28N 35°31' E 139°50'0 0.0
2018-Feb-13 12:55N 35°31' E 139°50'0 0.0
2018-Feb-13 12:28N 35°31' E 139°50'0 0.0
2018-Feb-13 11:58N 35°31' E 139°50'0 0.1
2018-Feb-13 11:28N 35°31' E 139°50'0 0.0
2018-Feb-13 09:13N 35°31' E 139°50'0 0.3
2018-Feb-13 08:52N 35°31' E 139°51'0 0.0
2018-Feb-13 08:25N 35°31' E 139°51'0 0.0
2018-Feb-13 07:58N 35°31' E 139°51'0 0.1
2018-Feb-13 07:28N 35°31' E 139°50'0 0.1
2018-Feb-13 06:58N 35°31' E 139°51'0 0.0
2018-Feb-13 06:28N 35°31' E 139°51'0 0.0
2018-Feb-13 05:58N 35°31' E 139°51'0 0.0
2018-Feb-13 05:28N 35°31' E 139°51'0 0.1
2018-Feb-13 04:55N 35°31' E 139°50'0 0.0
2018-Feb-13 04:10N 35°31' E 139°50'0 0.0
2018-Feb-13 03:58N 35°31' E 139°50'0 0.0
2018-Feb-13 03:25N 35°31' E 139°50'0 0.0
2018-Feb-13 02:58N 35°31' E 139°50'0 0.0
2018-Feb-13 02:25N 35°31' E 139°50'0 0.6
2018-Feb-13 02:00N 35°31' E 139°50'611.1
2018-Feb-13 01:30N 35°26' E 139°47'611.1
2018-Feb-13 01:00N 35°21' E 139°44'510.1
2018-Feb-13 00:30N 35°16' E 139°46'510.6
2018-Feb-13 00:00N 35°11' E 139°47'510.4
2018-Feb-12 23:30N 35°06' E 139°43'611.1
2018-Feb-12 23:00N 35°02' E 139°38'3312.2
2018-Feb-12 20:20N 34°42' E 139°07'411.8
2018-Feb-12 20:00N 34°39' E 139°04'6 9.8
2018-Feb-12 19:21N 34°36' E 138°57'1211.3
2018-Feb-12 18:19N 34°34' E 138°43'411.4
2018-Feb-12 18:00N 34°33' E 138°39'611.2
2018-Feb-12 17:30N 34°32' E 138°32'511.0
2018-Feb-12 17:00N 34°31' E 138°26'911.2
2018-Feb-12 16:14N 34°30' E 138°15'178 5.1
2018-Feb-11 05:29N 33°51' E 134°46'612.2
2018-Feb-11 04:58N 33°57' E 134°49'512.0
2018-Feb-11 04:30N 34°01' E 134°53'611.7
2018-Feb-11 04:00N 34°06' E 134°56'611.8
2018-Feb-11 03:30N 34°11' E 134°60'612.4
2018-Feb-11 03:01N 34°17' E 135°03'612.3
2018-Feb-11 02:31N 34°22' E 135°07'611.7
2018-Feb-11 02:01N 34°27' E 135°11'510.2
2018-Feb-11 01:30N 34°29' E 135°17'4 7.3
2018-Feb-11 01:01N 34°28' E 135°21'0 0.1
2018-Feb-11 00:28N 34°28' E 135°21'0 0.0
2018-Feb-10 23:58N 34°28' E 135°21'0 0.0
2018-Feb-10 23:28N 34°28' E 135°21'0 0.0
2018-Feb-10 22:58N 34°28' E 135°21'0 0.0
2018-Feb-10 22:19N 34°28' E 135°21'0 0.0
2018-Feb-10 21:55N 34°28' E 135°21'0 0.0
2018-Feb-10 21:25N 34°28' E 135°21'0 0.0
2018-Feb-10 20:55N 34°28' E 135°21'0 0.0
2018-Feb-10 20:28N 34°28' E 135°21'0 0.0
2018-Feb-10 19:55N 34°28' E 135°21'0 0.0
2018-Feb-10 19:25N 34°28' E 135°21'0 0.0
2018-Feb-10 18:55N 34°28' E 135°21'0 0.0
2018-Feb-10 18:28N 34°28' E 135°21'0 0.0
2018-Feb-10 17:55N 34°28' E 135°21'1 1.3
2018-Feb-10 17:31N 34°28' E 135°21'5 9.9
2018-Feb-10 17:00N 34°28' E 135°15'510.5
2018-Feb-10 16:30N 34°25' E 135°10'510.7
2018-Feb-10 16:00N 34°21' E 135°06'510.4
2018-Feb-10 15:31N 34°16' E 135°03'510.2
2018-Feb-10 15:00N 34°11' E 135°02'510.2
2018-Feb-10 14:30N 34°06' E 135°02'510.0
2018-Feb-10 14:00N 34°01' E 135°02'5 9.8
2018-Feb-10 13:30N 33°56' E 135°02'5 8.6
2018-Feb-10 12:59N 33°52' E 135°03'203 9.0
2018-Feb-09 14:31N 34°41' E 139°02'  
Track history (hours):
 
Tides and Currents Weather Stations Pressure Air Temp Water Temp Dewpoint Dewpoint Depression Visibility Wind Speed Wind Dir Waves Ship Positions

Shoei Maru No.55

Last reported at 2018-Feb-19 13:58 UTC. Time now 2018-Feb-19 14:21 UTC.
Position N 35°31' E 139°50'.

Length 72 m; draft 4.5 m.

Type: Cargo ship. MMSI: 431500583.

Date/timePositionNaut miles runAvg speedWind from/ knotsBaromVisibWave heightAir tempDewpointWater temp
2018-Feb-19 13:58N 35°31' E 139°50'0 0.0
2018-Feb-19 13:28N 35°31' E 139°50'0 0.0
2018-Feb-19 12:58N 35°31' E 139°50'0 0.0
2018-Feb-19 12:22N 35°31' E 139°50'0 0.0
2018-Feb-19 11:58N 35°31' E 139°50'0 0.0
2018-Feb-19 11:28N 35°31' E 139°50'0 0.0
2018-Feb-19 10:52N 35°31' E 139°50'0 0.0
2018-Feb-19 10:25N 35°31' E 139°50'0 0.0
2018-Feb-19 09:58N 35°31' E 139°50'0 0.1
2018-Feb-19 09:28N 35°31' E 139°50'0 0.0
2018-Feb-19 08:55N 35°31' E 139°50'0 0.0
2018-Feb-19 08:19N 35°31' E 139°50'0 0.0
2018-Feb-19 07:58N 35°31' E 139°50'0 0.0
2018-Feb-19 07:28N 35°31' E 139°50'0 0.0
2018-Feb-19 06:55N 35°31' E 139°50'0 0.0
2018-Feb-19 06:28N 35°31' E 139°50'0 0.0
2018-Feb-19 05:58N 35°31' E 139°50'0 0.0
2018-Feb-19 05:25N 35°31' E 139°50'0 0.0
2018-Feb-19 04:55N 35°31' E 139°50'0 0.1
2018-Feb-19 04:27N 35°31' E 139°50'4 8.7
2018-Feb-19 04:00N 35°27' E 139°48'611.0
2018-Feb-19 03:30N 35°22' E 139°45'5 9.9
2018-Feb-19 03:00N 35°17' E 139°45'5 9.8
2018-Feb-19 02:30N 35°12' E 139°47'510.5
2018-Feb-19 02:00N 35°08' E 139°44'610.8
2018-Feb-19 01:27N 35°03' E 139°39'3711.0
2018-Feb-18 22:06N 34°39' E 139°05'1 9.5
2018-Feb-18 21:59N 34°39' E 139°04'6 9.6
2018-Feb-18 21:22N 34°36' E 138°58'1610.6
2018-Feb-18 19:53N 34°33' E 138°39'611.4
2018-Feb-18 19:20N 34°32' E 138°32'611.0
2018-Feb-18 18:48N 34°31' E 138°25'711.5
2018-Feb-18 18:14N 34°30' E 138°17'180 5.1
2018-Feb-17 06:47N 33°50' E 134°45'712.4
2018-Feb-17 06:14N 33°56' E 134°49'312.4
2018-Feb-17 05:58N 33°59' E 134°51'612.4
2018-Feb-17 05:30N 34°04' E 134°54'612.2
2018-Feb-17 05:00N 34°09' E 134°58'612.4
2018-Feb-17 04:30N 34°15' E 135°02'613.1
2018-Feb-17 04:00N 34°20' E 135°06'611.8
2018-Feb-17 03:30N 34°25' E 135°10'611.2
2018-Feb-17 03:01N 34°30' E 135°13'510.8
2018-Feb-17 02:31N 34°35' E 135°17'510.0
2018-Feb-17 02:00N 34°39' E 135°20'4 8.3
2018-Feb-17 01:30N 34°42' E 135°24'0 0.0
2018-Feb-17 01:00N 34°42' E 135°24'0 0.0
2018-Feb-17 00:30N 34°42' E 135°24'0 0.0
2018-Feb-17 00:00N 34°42' E 135°24'0 0.0
2018-Feb-16 23:30N 34°42' E 135°24'0 0.0
2018-Feb-16 23:00N 34°42' E 135°24'0 0.0
2018-Feb-16 22:30N 34°42' E 135°24'0 0.0
2018-Feb-16 22:00N 34°42' E 135°24'0 0.0
2018-Feb-16 21:30N 34°42' E 135°24'0 0.0
2018-Feb-16 21:00N 34°42' E 135°24'0 0.0
2018-Feb-16 20:30N 34°42' E 135°24'0 0.0
2018-Feb-16 20:00N 34°42' E 135°24'0 0.0
2018-Feb-16 19:30N 34°42' E 135°24'3 5.5
2018-Feb-16 19:01N 34°40' E 135°21'0 0.1
2018-Feb-16 18:29N 34°40' E 135°21'0 0.0
2018-Feb-16 17:59N 34°40' E 135°21'0 0.0
2018-Feb-16 17:29N 34°40' E 135°21'0 0.0
2018-Feb-16 16:59N 34°40' E 135°21'0 0.0
2018-Feb-16 16:23N 34°40' E 135°21'0 0.0
2018-Feb-16 15:59N 34°40' E 135°21'0 0.1
2018-Feb-16 15:29N 34°40' E 135°21'0 0.1
2018-Feb-16 14:59N 34°40' E 135°21'0 0.1
2018-Feb-16 14:29N 34°40' E 135°21'0 0.0
2018-Feb-16 13:59N 34°40' E 135°21'0 0.1
2018-Feb-16 13:29N 34°40' E 135°21'0 0.1
2018-Feb-16 12:59N 34°40' E 135°21'0 0.0
2018-Feb-16 12:29N 34°40' E 135°21'2 4.0
2018-Feb-16 12:01N 34°38' E 135°20'510.9
2018-Feb-16 11:31N 34°34' E 135°16'611.2
2018-Feb-16 11:00N 34°29' E 135°12'611.3
2018-Feb-16 10:30N 34°24' E 135°08'611.5
2018-Feb-16 10:00N 34°20' E 135°05'611.8
2018-Feb-16 09:30N 34°14' E 135°03'611.3
2018-Feb-16 09:00N 34°08' E 135°02'611.2
2018-Feb-16 08:30N 34°02' E 135°02'611.1
2018-Feb-16 08:00N 33°57' E 135°02'510.5
2018-Feb-16 07:30N 33°52' E 135°03'141 9.4
2018-Feb-15 16:30N 34°27' E 137°48'710.5
2018-Feb-15 15:50N 34°28' E 137°57'3 9.7
2018-Feb-15 15:30N 34°29' E 138°01'5 9.4
2018-Feb-15 14:56N 34°29' E 138°07'5 8.8
2018-Feb-15 14:23N 34°31' E 138°12'4 8.8
2018-Feb-15 13:59N 34°32' E 138°17'4 9.1
2018-Feb-15 13:30N 34°32' E 138°22'5 9.6
2018-Feb-15 13:00N 34°33' E 138°28'6 9.7
2018-Feb-15 12:26N 34°34' E 138°34'4 9.7
2018-Feb-15 11:59N 34°34' E 138°40'5 9.7
2018-Feb-15 11:30N 34°35' E 138°45'6 9.4
2018-Feb-15 10:55N 34°35' E 138°52'3 7.9
2018-Feb-15 10:30N 34°36' E 138°56'4 8.2
2018-Feb-15 10:00N 34°38' E 138°59'510.0
2018-Feb-15 09:28N 34°43' E 139°04'510.2
2018-Feb-15 08:57N 34°47' E 139°08'610.0
2018-Feb-15 08:24N 34°51' E 139°12'410.0
2018-Feb-15 07:59N 34°54' E 139°15'5 9.9
2018-Feb-15 07:30N 34°56' E 139°20'510.0
2018-Feb-15 06:59N 34°59' E 139°26'510.3
2018-Feb-15 06:30N 35°02' E 139°31'511.0
2018-Feb-15 06:01N 35°05' E 139°37'611.7
2018-Feb-15 05:30N 35°08' E 139°43'611.1
2018-Feb-15 05:00N 35°12' E 139°46'510.2
2018-Feb-15 04:30N 35°17' E 139°45'510.5
2018-Feb-15 04:00N 35°22' E 139°42'510.8
2018-Feb-15 03:30N 35°28' E 139°42'2 4.2
2018-Feb-15 03:00N 35°30' E 139°43'0 0.0
2018-Feb-15 02:30N 35°30' E 139°43'0 0.0
2018-Feb-15 02:00N 35°30' E 139°43'0 0.0
2018-Feb-15 01:30N 35°30' E 139°43'0 0.0
2018-Feb-15 01:00N 35°30' E 139°43'0 0.0
2018-Feb-15 00:30N 35°30' E 139°43'0 0.0
2018-Feb-15 00:00N 35°30' E 139°43'0 0.0
2018-Feb-14 23:30N 35°30' E 139°43'0 0.0
2018-Feb-14 23:00N 35°30' E 139°43'0 0.8
2018-Feb-14 22:31N 35°30' E 139°44'510.8
2018-Feb-14 22:00N 35°31' E 139°50'0 0.3
2018-Feb-14 21:28N 35°31' E 139°50'0 0.0
2018-Feb-14 20:58N 35°31' E 139°50'0 0.0
2018-Feb-14 20:28N 35°31' E 139°50'0 0.0
2018-Feb-14 19:58N 35°31' E 139°50'0 0.0
2018-Feb-14 19:28N 35°31' E 139°50'0 0.0
2018-Feb-14 18:58N 35°31' E 139°50'0 0.0
2018-Feb-14 18:28N 35°31' E 139°50'0 0.0
2018-Feb-14 17:55N 35°31' E 139°50'0 0.0
2018-Feb-14 17:28N 35°31' E 139°50'0 0.0
2018-Feb-14 16:58N 35°31' E 139°50'0 0.0
2018-Feb-14 16:28N 35°31' E 139°50'0 0.0
2018-Feb-14 15:58N 35°31' E 139°50'0 0.0
2018-Feb-14 15:28N 35°31' E 139°50'0 0.0
2018-Feb-14 14:58N 35°31' E 139°50'0 0.0
2018-Feb-14 14:28N 35°31' E 139°50'0 0.0
2018-Feb-14 13:58N 35°31' E 139°50'0 0.0
2018-Feb-14 13:28N 35°31' E 139°50'0 0.0
2018-Feb-14 12:58N 35°31' E 139°50'0 0.0
2018-Feb-14 12:28N 35°31' E 139°50'0 0.0
2018-Feb-14 11:55N 35°31' E 139°50'0 0.0
2018-Feb-14 11:28N 35°31' E 139°50'0 0.0
2018-Feb-14 10:58N 35°31' E 139°50'0 0.0
2018-Feb-14 10:28N 35°31' E 139°50'0 0.0
2018-Feb-14 09:55N 35°31' E 139°50'0 0.0
2018-Feb-14 09:25N 35°31' E 139°50'0 0.0
2018-Feb-14 08:58N 35°31' E 139°50'0 0.0
2018-Feb-14 08:25N 35°31' E 139°50'0 0.0
2018-Feb-14 07:58N 35°31' E 139°50'0 0.0
2018-Feb-14 07:25N 35°31' E 139°50'0 0.1
2018-Feb-14 06:58N 35°31' E 139°50'0 0.1
2018-Feb-14 06:25N 35°31' E 139°50'0 0.1
2018-Feb-14 05:58N 35°31' E 139°50'0 0.0
2018-Feb-14 05:28N 35°31' E 139°50'0 0.0
2018-Feb-14 04:52N 35°31' E 139°50'0 0.0
2018-Feb-14 04:28N 35°31' E 139°50'0 0.1
2018-Feb-14 04:00N 35°31' E 139°50'5 9.4
2018-Feb-14 03:30N 35°35' E 139°47'1 1.2
2018-Feb-14 03:00N 35°35' E 139°46'0 0.0
2018-Feb-14 02:09N 35°35' E 139°46'0 0.0
2018-Feb-14 02:00N 35°35' E 139°46'0 0.0
2018-Feb-14 01:27N 35°35' E 139°46'0 0.0
2018-Feb-14 00:48N 35°35' E 139°46'0 0.0
2018-Feb-14 00:18N 35°35' E 139°46'0 0.0
2018-Feb-13 21:18N 35°35' E 139°46'1 3.1
2018-Feb-13 21:00N 35°35' E 139°47'5 9.2
2018-Feb-13 20:30N 35°31' E 139°50'0 0.0
2018-Feb-13 19:58N 35°31' E 139°50'0 0.0
2018-Feb-13 19:28N 35°31' E 139°50'0 0.0
2018-Feb-13 18:58N 35°31' E 139°50'0 0.0
2018-Feb-13 18:28N 35°31' E 139°50'0 0.1
2018-Feb-13 17:58N 35°31' E 139°50'0 0.0
2018-Feb-13 17:28N 35°31' E 139°50'0 0.0
2018-Feb-13 16:58N 35°31' E 139°50'0 0.0
2018-Feb-13 16:28N 35°31' E 139°50'0 0.0
2018-Feb-13 15:58N 35°31' E 139°50'0 0.0
2018-Feb-13 15:25N 35°31' E 139°50'0 0.0
2018-Feb-13 14:58N 35°31' E 139°50'0 0.0
2018-Feb-13 14:28N 35°31' E 139°50'0 0.0
2018-Feb-13 13:58N 35°31' E 139°50'0 0.0
2018-Feb-13 13:28N 35°31' E 139°50'0 0.0
2018-Feb-13 12:55N 35°31' E 139°50'0 0.0
2018-Feb-13 12:28N 35°31' E 139°50'0 0.0
2018-Feb-13 11:58N 35°31' E 139°50'0 0.1
2018-Feb-13 11:28N 35°31' E 139°50'0 0.0
2018-Feb-13 09:13N 35°31' E 139°50'0 0.3
2018-Feb-13 08:52N 35°31' E 139°51'0 0.0
2018-Feb-13 08:25N 35°31' E 139°51'0 0.0
2018-Feb-13 07:58N 35°31' E 139°51'0 0.1
2018-Feb-13 07:28N 35°31' E 139°50'0 0.1
2018-Feb-13 06:58N 35°31' E 139°51'0 0.0
2018-Feb-13 06:28N 35°31' E 139°51'0 0.0
2018-Feb-13 05:58N 35°31' E 139°51'0 0.0
2018-Feb-13 05:28N 35°31' E 139°51'0 0.1
2018-Feb-13 04:55N 35°31' E 139°50'0 0.0
2018-Feb-13 04:10N 35°31' E 139°50'0 0.0
2018-Feb-13 03:58N 35°31' E 139°50'0 0.0
2018-Feb-13 03:25N 35°31' E 139°50'0 0.0
2018-Feb-13 02:58N 35°31' E 139°50'0 0.0
2018-Feb-13 02:25N 35°31' E 139°50'0 0.6
2018-Feb-13 02:00N 35°31' E 139°50'611.1
2018-Feb-13 01:30N 35°26' E 139°47'611.1
2018-Feb-13 01:00N 35°21' E 139°44'510.1
2018-Feb-13 00:30N 35°16' E 139°46'510.6
2018-Feb-13 00:00N 35°11' E 139°47'510.4
2018-Feb-12 23:30N 35°06' E 139°43'611.1
2018-Feb-12 23:00N 35°02' E 139°38'3312.2
2018-Feb-12 20:20N 34°42' E 139°07'411.8
2018-Feb-12 20:00N 34°39' E 139°04'6 9.8
2018-Feb-12 19:21N 34°36' E 138°57'1211.3
2018-Feb-12 18:19N 34°34' E 138°43'411.4
2018-Feb-12 18:00N 34°33' E 138°39'611.2
2018-Feb-12 17:30N 34°32' E 138°32'511.0
2018-Feb-12 17:00N 34°31' E 138°26'911.2
2018-Feb-12 16:14N 34°30' E 138°15'178 5.1
2018-Feb-11 05:29N 33°51' E 134°46'612.2
2018-Feb-11 04:58N 33°57' E 134°49'512.0
2018-Feb-11 04:30N 34°01' E 134°53'611.7
2018-Feb-11 04:00N 34°06' E 134°56'611.8
2018-Feb-11 03:30N 34°11' E 134°60'612.4
2018-Feb-11 03:01N 34°17' E 135°03'612.3
2018-Feb-11 02:31N 34°22' E 135°07'611.7
2018-Feb-11 02:01N 34°27' E 135°11'510.2
2018-Feb-11 01:30N 34°29' E 135°17'4 7.3
2018-Feb-11 01:01N 34°28' E 135°21'0 0.1
2018-Feb-11 00:28N 34°28' E 135°21'0 0.0
2018-Feb-10 23:58N 34°28' E 135°21'0 0.0
2018-Feb-10 23:28N 34°28' E 135°21'0 0.0
2018-Feb-10 22:58N 34°28' E 135°21'0 0.0
2018-Feb-10 22:19N 34°28' E 135°21'0 0.0
2018-Feb-10 21:55N 34°28' E 135°21'0 0.0
2018-Feb-10 21:25N 34°28' E 135°21'0 0.0
2018-Feb-10 20:55N 34°28' E 135°21'0 0.0
2018-Feb-10 20:28N 34°28' E 135°21'0 0.0
2018-Feb-10 19:55N 34°28' E 135°21'0 0.0
2018-Feb-10 19:25N 34°28' E 135°21'0 0.0
2018-Feb-10 18:55N 34°28' E 135°21'0 0.0
2018-Feb-10 18:28N 34°28' E 135°21'0 0.0
2018-Feb-10 17:55N 34°28' E 135°21'1 1.3
2018-Feb-10 17:31N 34°28' E 135°21'5 9.9
2018-Feb-10 17:00N 34°28' E 135°15'510.5
2018-Feb-10 16:30N 34°25' E 135°10'510.7
2018-Feb-10 16:00N 34°21' E 135°06'510.4
2018-Feb-10 15:31N 34°16' E 135°03'510.2
2018-Feb-10 15:00N 34°11' E 135°02'510.2
2018-Feb-10 14:30N 34°06' E 135°02'510.0
2018-Feb-10 14:00N 34°01' E 135°02'5 9.8
2018-Feb-10 13:30N 33°56' E 135°02'5 8.6
2018-Feb-10 12:59N 33°52' E 135°03'203 9.0
2018-Feb-09 14:31N 34°41' E 139°02'  

Dump ship's entire track history